An Nasiriyah, Iraq
Current Conditions -  °F | °C
As of 3:00 PM on Thursday 23 Oct 2014 (Local Time) from ORMM Reporting Station
Clear Clear  
Wind Chill: 30°   Ceiling: Unl
Heat Index: 30°   Visibility: 6mi
Dew Point:   Wind: 12mph
Humidity: 23%   Direction: 310°NW
Pressure: 30"   Gusts: NA
Location:  31.04°N, 46.26°E
Report Text: ORMM 231200Z 31010KT CAVOK 30/07 Q1016 NOSIG
Loading
Personal Weather Stations






























Interactive Weather Map
Tropical Storm Tracking
New forecast layout! Learn more

10-Day Weather Forecast

Advertisements
Track Severe Weather on mobile